createdAt,value
2023-02-02T00:01:30.212Z,57.40
2023-02-02T00:03:58.654Z,53.13
2023-02-02T00:06:29.581Z,54.45
2023-02-02T00:08:58.604Z,56.15
2023-02-02T00:11:26.970Z,56.17
2023-02-02T00:13:56.309Z,55.80
2023-02-02T00:16:41.836Z,57.65
2023-02-02T00:19:11.763Z,55.17
2023-02-02T00:21:39.651Z,61.10
2023-02-02T00:24:08.653Z,69.10
2023-02-02T00:26:37.368Z,73.13
2023-02-02T00:29:07.722Z,68.47
2023-02-02T00:31:35.742Z,69.55
2023-02-02T00:34:03.641Z,67.68
2023-02-02T13:10:39.598Z,6.93
2023-02-02T13:13:12.517Z,6.63
2023-02-02T13:15:43.350Z,8.07
2023-02-02T13:18:16.293Z,12.82
2023-02-02T13:20:47.430Z,9.45
2023-02-02T13:23:21.255Z,10.88
2023-02-02T13:25:54.304Z,13.02
2023-02-02T13:28:36.645Z,9.25
2023-02-02T13:31:12.504Z,15.00
2023-02-02T13:33:42.763Z,12.43
2023-02-02T13:36:19.304Z,13.20
2023-02-02T13:38:47.477Z,11.25
2023-02-02T13:41:18.469Z,17.58
2023-02-02T13:43:53.567Z,10.90
2023-02-02T13:46:30.501Z,13.25
2023-02-02T13:49:06.577Z,11.93
2023-02-02T13:51:54.631Z,14.10
2023-02-02T13:55:00.092Z,14.80
2023-02-02T13:57:52.930Z,11.75
2023-02-02T14:00:24.303Z,12.63
2023-02-02T14:02:55.340Z,16.42
2023-02-02T14:05:27.024Z,15.57
2023-02-02T14:08:03.122Z,12.93
2023-02-02T14:10:35.811Z,17.88
2023-02-02T14:13:34.833Z,12.13
2023-02-02T14:16:06.438Z,15.73
2023-02-02T14:18:56.710Z,27.10
2023-02-02T14:22:17.501Z,17.20
2023-02-02T14:24:47.738Z,16.95
2023-02-02T14:27:56.509Z,18.23
2023-02-02T14:30:34.543Z,17.15
2023-02-02T14:33:25.810Z,20.48
2023-02-02T14:36:02.215Z,22.48
2023-02-02T14:39:07.356Z,13.52
2023-02-02T14:42:02.700Z,15.35
2023-02-02T14:44:31.306Z,18.25
2023-02-02T14:47:00.672Z,19.67
2023-02-02T14:49:36.338Z,23.85
2023-02-02T14:52:05.374Z,22.85
2023-02-02T14:54:37.198Z,17.33
2023-02-02T14:57:22.754Z,19.85
2023-02-02T14:59:52.871Z,30.90
2023-02-02T15:02:25.784Z,70.15
2023-02-02T15:05:13.653Z,84.13
2023-02-02T15:07:54.144Z,88.47
2023-02-02T15:11:00.039Z,91.00
2023-02-02T15:13:37.319Z,96.28
2023-02-02T15:16:10.892Z,105.07
2023-02-02T15:18:46.174Z,91.50
2023-02-02T15:21:22.006Z,104.03
2023-02-02T15:23:50.403Z,90.15
2023-02-02T15:26:22.461Z,85.90
2023-02-02T15:28:55.449Z,99.78
2023-02-02T15:31:29.561Z,93.63
2023-02-02T15:34:02.104Z,98.28
2023-02-02T15:36:33.014Z,86.68
2023-02-02T15:39:04.262Z,88.10
2023-02-02T15:41:34.585Z,89.43
2023-02-02T15:44:02.740Z,84.40
2023-02-02T15:46:35.848Z,74.05
2023-02-02T15:49:34.202Z,64.65
2023-02-02T15:52:11.883Z,54.42
2023-02-02T15:54:39.770Z,60.50
2023-02-02T15:57:31.765Z,53.67
2023-02-02T16:00:00.750Z,54.60
2023-02-02T16:02:37.578Z,49.22
2023-02-02T16:05:39.246Z,48.58
2023-02-02T16:08:10.189Z,52.15
2023-02-02T16:10:38.187Z,42.88
2023-02-02T16:13:06.116Z,45.60
2023-02-02T16:15:34.029Z,46.00
2023-02-02T16:18:03.778Z,37.95
2023-02-02T16:20:35.577Z,40.80
2023-02-02T16:23:06.837Z,43.00
2023-02-02T16:25:38.730Z,44.60
2023-02-02T16:28:06.965Z,40.78
2023-02-02T16:30:38.451Z,38.75
2023-02-02T16:33:27.459Z,36.03
2023-02-02T16:35:57.040Z,34.55
2023-02-02T16:38:27.462Z,37.35
2023-02-02T16:41:09.120Z,30.63
2023-02-02T16:43:38.984Z,32.70
2023-02-02T16:46:10.440Z,30.60
2023-02-02T16:48:40.301Z,33.05
2023-02-02T16:51:27.945Z,32.45
2023-02-02T16:54:02.895Z,28.45
2023-02-02T16:59:06.639Z,32.53
2023-02-02T17:01:39.424Z,27.58
2023-02-02T17:04:15.730Z,25.42
2023-02-02T17:06:52.419Z,25.65
2023-02-02T17:09:37.307Z,28.20
2023-02-02T17:12:14.245Z,29.33
2023-02-02T17:14:53.105Z,25.95
2023-02-02T17:17:21.454Z,23.77
2023-02-02T17:19:49.494Z,32.08
2023-02-02T17:22:21.127Z,28.73
2023-02-02T17:24:51.172Z,24.52
2023-02-02T17:27:28.696Z,21.52
2023-02-02T17:29:57.713Z,33.15
2023-02-02T17:32:26.859Z,20.48
2023-02-02T17:34:54.775Z,24.05
2023-02-02T17:37:24.001Z,23.63
2023-02-02T17:39:51.917Z,22.08
2023-02-02T17:42:25.448Z,22.70
2023-02-02T17:44:53.387Z,24.35
2023-02-02T17:47:21.326Z,24.42
2023-02-02T17:49:49.220Z,28.05
2023-02-02T17:52:17.152Z,31.27
2023-02-02T17:54:46.351Z,37.45
2023-02-02T17:57:15.371Z,33.92
2023-02-02T17:59:43.274Z,26.27
2023-02-02T18:02:13.901Z,33.30
2023-02-02T18:04:43.675Z,33.97
2023-02-02T18:07:13.351Z,34.70
2023-02-02T18:09:41.293Z,37.22
2023-02-02T18:12:10.604Z,34.58
2023-02-02T18:14:38.608Z,36.15
2023-02-02T18:17:08.190Z,38.28
2023-02-02T18:19:36.123Z,32.25
2023-02-02T18:22:04.026Z,40.72
2023-02-02T18:24:31.877Z,39.95
2023-02-02T18:26:59.781Z,37.88
2023-02-02T18:29:29.328Z,34.53
2023-02-02T18:31:58.612Z,39.20
2023-02-02T18:34:29.374Z,35.78
2023-02-02T18:36:57.342Z,39.58
2023-02-02T18:39:25.279Z,44.72
2023-02-02T18:41:53.175Z,38.35
2023-02-02T18:44:22.283Z,37.45
2023-02-02T18:46:52.146Z,36.78
2023-02-02T18:49:20.313Z,38.05
2023-02-02T18:51:48.898Z,36.13
2023-02-02T18:54:17.409Z,38.75
2023-02-02T18:56:45.341Z,31.67
2023-02-02T18:59:13.205Z,33.05
2023-02-02T19:01:41.265Z,33.50
2023-02-02T19:04:10.579Z,32.40
2023-02-02T19:06:56.138Z,29.17
2023-02-02T19:09:24.750Z,32.40
2023-02-02T19:11:54.818Z,26.45
2023-02-02T19:14:26.563Z,32.33
2023-02-02T19:16:57.215Z,29.20
2023-02-02T19:19:30.110Z,26.92
2023-02-02T19:21:59.430Z,29.00
2023-02-02T19:24:28.884Z,45.90
2023-02-02T19:26:57.135Z,29.42
2023-02-02T19:29:26.901Z,29.75
2023-02-02T19:32:00.563Z,32.28
2023-02-02T19:34:32.296Z,30.25
2023-02-02T19:37:02.271Z,25.92
2023-02-02T19:39:31.896Z,28.38
2023-02-02T19:42:00.947Z,32.42
2023-02-02T19:44:34.012Z,34.38
2023-02-02T19:47:02.755Z,43.95
2023-02-02T19:49:34.662Z,101.45
2023-02-02T19:52:04.828Z,160.98
2023-02-02T19:54:37.444Z,205.63
2023-02-02T19:57:16.521Z,182.13
2023-02-02T19:59:48.249Z,141.75
2023-02-02T20:02:39.710Z,220.68
2023-02-02T20:05:18.842Z,256.58
2023-02-02T20:07:46.882Z,234.38
2023-02-02T20:10:22.208Z,253.73
2023-02-02T20:12:50.936Z,222.35
2023-02-02T20:15:29.115Z,191.20
2023-02-02T20:17:59.169Z,166.40
2023-02-02T20:20:30.829Z,173.80
2023-02-02T20:22:58.960Z,170.38
2023-02-02T20:25:29.140Z,163.65
2023-02-02T20:27:58.897Z,166.32
2023-02-02T20:30:30.788Z,151.65
2023-02-02T20:33:01.528Z,155.93
2023-02-02T20:35:36.956Z,152.18
2023-02-02T20:38:17.071Z,148.57
2023-02-02T20:40:45.026Z,139.38
2023-02-02T20:43:14.860Z,141.50
2023-02-02T20:45:43.714Z,146.18
2023-02-02T20:48:12.380Z,154.35
2023-02-02T20:50:42.248Z,145.73
2023-02-02T20:53:10.657Z,148.30
2023-02-02T20:55:38.679Z,149.15
2023-02-02T20:58:07.304Z,143.52
2023-02-02T21:00:35.202Z,138.73
2023-02-02T21:03:03.447Z,134.15
2023-02-02T21:05:31.344Z,148.10
2023-02-02T21:08:00.571Z,152.40
2023-02-02T21:10:28.774Z,143.05
2023-02-02T21:12:56.914Z,141.05
2023-02-02T21:15:26.214Z,121.97
2023-02-02T21:17:54.154Z,123.32
2023-02-02T21:20:22.141Z,123.00
2023-02-02T21:22:50.106Z,116.05
2023-02-02T21:25:19.506Z,111.40
2023-02-02T21:27:47.423Z,99.72
2023-02-02T21:30:15.676Z,109.93
2023-02-02T21:32:44.119Z,97.70
2023-02-02T21:35:14.132Z,99.50
2023-02-02T21:37:44.099Z,93.63
2023-02-02T21:40:15.125Z,89.47
2023-02-02T21:42:48.800Z,86.00
2023-02-02T21:45:34.215Z,80.13
2023-02-02T21:50:32.950Z,87.22
2023-02-02T21:53:19.967Z,81.78
2023-02-02T21:55:50.789Z,78.03
2023-02-02T21:58:23.057Z,77.65
2023-02-02T22:00:51.325Z,71.05
2023-02-02T22:03:33.121Z,71.82
2023-02-02T22:06:18.008Z,68.45
2023-02-02T22:08:45.954Z,69.35
2023-02-02T22:11:24.475Z,68.05
2023-02-02T22:13:55.508Z,72.90
2023-02-02T22:16:23.543Z,80.13
2023-02-02T22:18:51.449Z,91.07
2023-02-02T22:21:21.108Z,82.70
2023-02-02T22:23:49.156Z,91.65
2023-02-02T22:26:33.440Z,86.55
2023-02-02T22:29:08.123Z,85.32
2023-02-02T22:31:36.054Z,87.85
2023-02-02T22:34:03.981Z,89.53
2023-02-02T22:36:31.838Z,101.07
2023-02-02T22:38:59.692Z,94.05
2023-02-02T22:41:27.730Z,86.80
2023-02-02T22:43:55.654Z,96.65
2023-02-02T22:46:25.027Z,95.20
2023-02-02T22:48:52.947Z,83.18
2023-02-02T22:51:20.997Z,83.53
2023-02-02T22:53:48.879Z,101.05
2023-02-02T22:56:17.063Z,78.82
2023-02-02T22:58:44.924Z,79.72
2023-02-02T23:01:13.640Z,91.50
2023-02-02T23:03:42.851Z,89.47
2023-02-02T23:06:10.991Z,83.45
2023-02-02T23:08:38.879Z,81.80
2023-02-02T23:11:06.848Z,77.35
2023-02-02T23:13:34.726Z,90.45
2023-02-02T23:16:02.615Z,87.63
2023-02-02T23:18:30.522Z,84.32
2023-02-02T23:20:59.740Z,87.78
2023-02-02T23:23:27.616Z,80.82
2023-02-02T23:25:55.546Z,85.80
2023-02-02T23:28:23.491Z,87.20
2023-02-02T23:30:54.514Z,98.72
2023-02-02T23:33:22.478Z,89.70
2023-02-02T23:35:50.341Z,92.43
2023-02-02T23:38:19.584Z,88.93
2023-02-02T23:40:47.469Z,101.03
2023-02-02T23:43:15.350Z,84.70
